ホワイトホース の空港の天気 - METARとTAF

ホワイトホース国際空港 ( CYXY / YXY ) - カナダ ユーコン準州ホワイトホース
飛行場実況気象(Metar)
観測時間11/12 17:00 PST (11/13 01:00 UTC)
風向・風速北北西 2m/s
視程10km以上
天気現象弱い雪
全天の8割程度の雲 雲底高度 270m
全天を覆う雲 雲底高度 460m
気温-9℃
湿度85%
気圧1011.9hPa
METARCYXY 130100Z 33004KT 300V010 10SM -SN BKN009 OVC015 M09/M11 A2971 RMK ST6ST2 SLP119
過去の天気等 Google飛行場航空写真 Wunderground天気予報

過去48時間のMETAR

飛行場予報(TAF)
発表時間: 11/12 15:38 PST (11/12 23:38 UTC)
予報対象時間: 12日16時 PST ~ 13日4時 PST
風向・風速北北西 3m/s
視程10km以上
天気現象弱い雪
少しの雲 雲底高度 300m
全天を覆う雲 雲底高度 610m
12日16時 PST ~ 13日4時 PST に一時的に
視程3220m
天気現象弱い雪
全天の4割程度の雲 雲底高度 120m
全天の8割程度の雲 雲底高度 300m
全天を覆う雲 雲底高度 610m
TAF CYXY 122338Z 1300/1312 33005KT P6SM -SN FEW010 OVC020
TEMPO 1300/1312 2SM -SN SCT004 BKN010 OVC020 RMK NXT FCST BY 130600Z